Time;durP1;ratioP1;P1;durP2;ratioP2;P2;SDS_P1;SDS_P2;PMS_P1;PMS_P2;Temp;Humidity;BMP_temperature;BMP_pressure;BME280_temperature;BME280_humidity;BME280_pressure;Samples;Min_cycle;Max_cycle;Signal;HPM_P1;HPM_P2
2021/01/27 00:00:56;;;;;;;8.77;5.38;;;;;;;1.40;87.26;100904.34;5054188;28;20056;-69
2021/01/27 00:03:40;;;;;;;;;;;;;;;1.28;87.63;100904.06;5054924;28;20051;-69
2021/01/27 00:06:24;;;;;;;9.17;5.20;;;;;;;1.26;88.94;100904.13;5053298;28;20034;-69
2021/01/27 00:09:08;;;;;;;9.30;5.00;;;;;;;1.25;89.28;100909.47;5053084;28;20324;-69
2021/01/27 00:11:52;;;;;;;8.98;4.97;;;;;;;1.13;89.58;100900.38;5053254;28;20107;-69
2021/01/27 00:14:36;;;;;;;7.32;4.63;;;;;;;1.04;90.24;100905.19;5053966;28;20056;-69
2021/01/27 00:17:20;;;;;;;9.00;4.93;;;;;;;0.99;90.67;100900.16;5052840;28;20086;-69
2021/01/27 00:20:09;;;;;;;11.27;5.30;;;;;;;0.94;91.33;100885.53;5053681;28;20056;-69
2021/01/27 00:22:53;;;;;;;9.77;5.25;;;;;;;1.06;91.21;100890.22;5053017;28;20090;-69
2021/01/27 00:25:37;;;;;;;12.30;5.30;;;;;;;1.04;91.03;100890.28;5053959;28;20055;-69
2021/01/27 00:28:22;;;;;;;6.63;4.47;;;;;;;0.93;91.60;100876.78;5052569;28;20079;-69
2021/01/27 00:31:06;;;;;;;8.40;5.18;;;;;;;0.81;92.08;100877.34;5052891;28;20544;-69
2021/01/27 00:33:50;;;;;;;9.95;5.07;;;;;;;0.84;92.63;100871.94;5039015;28;20508;-69
2021/01/27 00:36:33;;;;;;;;;;;;;;;0.84;93.05;100861.47;5054243;28;20051;-69
2021/01/27 00:39:18;;;;;;;9.35;5.43;;;;;;;0.91;93.49;100860.25;5052412;28;20423;-69
2021/01/27 00:42:02;;;;;;;11.13;5.75;;;;;;;0.93;93.46;100858.41;5052694;28;20124;-69
2021/01/27 00:44:46;;;;;;;13.30;5.40;;;;;;;0.98;93.17;100847.72;5052671;28;20560;-69
2021/01/27 00:47:30;;;;;;;11.77;5.70;;;;;;;0.99;93.33;100834.53;5052294;28;20044;-69
2021/01/27 00:50:16;;;;;;;10.63;6.47;;;;;;;0.96;93.99;100845.16;5052583;28;20576;-69
2021/01/27 00:53:00;;;;;;;11.40;5.80;;;;;;;0.97;94.32;100846.88;5053276;28;20044;-69
2021/01/27 00:55:44;;;;;;;7.07;5.00;;;;;;;0.85;94.58;100838.69;5052479;28;20052;-69
2021/01/27 00:58:28;;;;;;;;;;;;;;;0.77;95.96;100832.94;5052591;28;20051;-69
2021/01/27 01:01:12;;;;;;;10.13;5.97;;;;;;;0.72;96.12;100835.78;5052493;28;19919;-69
2021/01/27 01:03:57;;;;;;;12.05;6.70;;;;;;;0.68;97.22;100839.47;5052253;28;20048;-69
2021/01/27 01:06:41;;;;;;;13.20;5.60;;;;;;;0.68;97.93;100839.47;5052348;28;20413;-69
2021/01/27 01:09:25;;;;;;;11.50;7.28;;;;;;;0.69;98.05;100840.31;5053543;28;20513;-69
2021/01/27 01:12:09;;;;;;;;;;;;;;;0.62;98.39;100850.22;5052742;28;20068;-69
2021/01/27 01:14:53;;;;;;;16.90;6.80;;;;;;;0.62;98.32;100844.97;5052295;28;20297;-69
2021/01/27 01:17:38;;;;;;;;;;;;;;;0.59;99.50;100839.88;5053747;28;20544;-69
2021/01/27 01:20:23;;;;;;;14.88;7.78;;;;;;;0.55;99.85;100833.03;5052943;28;19919;-70
2021/01/27 01:23:07;;;;;;;15.45;7.57;;;;;;;0.55;100.00;100837.47;5052238;28;20075;-69
2021/01/27 01:25:51;;;;;;;11.02;6.80;;;;;;;0.59;100.00;100829.38;5052191;28;20573;-69
2021/01/27 01:28:36;;;;;;;15.13;8.50;;;;;;;0.60;100.00;100825.84;5037612;28;20064;-69
2021/01/27 01:31:19;;;;;;;15.43;8.38;;;;;;;0.56;100.00;100819.03;5052130;28;20044;-69
2021/01/27 01:34:03;;;;;;;;;;;;;;;0.56;100.00;100829.53;5052803;28;20055;-69
2021/01/27 01:36:48;;;;;;;16.45;8.00;;;;;;;0.58;100.00;100825.06;5053062;28;19920;-69
2021/01/27 01:39:33;;;;;;;13.27;8.68;;;;;;;0.54;100.00;100826.09;5051803;28;20056;-69
2021/01/27 01:42:17;;;;;;;15.00;7.93;;;;;;;0.49;100.00;100819.34;5052060;28;20051;-69
2021/01/27 01:45:38;;;;;;;16.17;8.80;;;;;;;0.51;100.00;100821.00;5052721;28;20051;-69
2021/01/27 01:48:23;;;;;;;14.68;8.63;;;;;;;0.49;100.00;100817.59;5051847;28;20048;-69
2021/01/27 01:51:22;;;;;;;;;;;;;;;0.47;100.00;100813.31;5053401;28;20052;-69
2021/01/27 01:54:36;;;;;;;14.57;8.90;;;;;;;0.43;100.00;100815.22;5052800;28;20019;-69
2021/01/27 01:57:26;;;;;;;19.38;8.88;;;;;;;0.39;100.00;100810.19;5047514;28;20060;-69
2021/01/27 02:00:11;;;;;;;12.68;8.45;;;;;;;0.46;100.00;100791.50;5055348;28;20047;-69
2021/01/27 02:02:56;;;;;;;17.08;9.18;;;;;;;0.50;100.00;100802.69;5055458;28;20079;-69
2021/01/27 02:05:40;;;;;;;15.05;9.48;;;;;;;0.56;100.00;100792.81;5056411;28;20071;-69
2021/01/27 02:08:24;;;;;;;;;;;;;;;0.57;100.00;100794.50;5056881;28;20571;-69
2021/01/27 02:11:10;;;;;;;17.58;9.65;;;;;;;0.55;100.00;100780.56;5055337;28;19936;-69
2021/01/27 02:14:03;;;;;;;15.63;8.02;;;;;;;0.61;100.00;100788.19;5041653;28;20052;-69
2021/01/27 02:17:01;;;;;;;10.10;6.30;;;;;;;0.59;100.00;100791.78;5055447;28;20040;-69
2021/01/27 02:20:24;;;;;;;18.98;9.05;;;;;;;0.64;100.00;100790.66;5055019;28;20128;-69
2021/01/27 02:23:10;;;;;;;15.48;8.45;;;;;;;0.73;100.00;100787.63;5056045;28;20044;-69
2021/01/27 02:26:01;;;;;;;17.27;9.10;;;;;;;0.77;100.00;100770.81;5056301;28;20512;-69
2021/01/27 02:29:00;;;;;;;12.95;8.10;;;;;;;0.85;100.00;100768.66;5055924;28;20048;-69
2021/01/27 02:31:59;;;;;;;17.10;9.10;;;;;;;0.90;100.00;100769.31;5055865;28;20072;-69
2021/01/27 02:34:56;;;;;;;13.00;8.57;;;;;;;0.95;100.00;100764.69;5054972;28;20099;-69
2021/01/27 02:38:02;;;;;;;16.27;8.57;;;;;;;1.04;99.79;100769.50;5055855;28;20405;-69
2021/01/27 02:41:05;;;;;;;12.68;8.52;;;;;;;1.04;99.76;100777.38;5055009;28;20048;-69
2021/01/27 02:43:53;;;;;;;16.23;9.48;;;;;;;1.06;99.71;100778.16;5054700;28;20048;-69
2021/01/27 02:46:53;;;;;;;15.00;7.85;;;;;;;1.05;99.47;100773.00;5054762;28;20175;-69
2021/01/27 02:49:49;;;;;;;18.95;9.18;;;;;;;1.05;99.29;100775.63;5054462;28;20044;-69
2021/01/27 02:52:46;;;;;;;18.45;8.68;;;;;;;1.12;99.10;100777.00;5054739;28;20186;-69
2021/01/27 02:55:35;;;;;;;13.65;8.18;;;;;;;1.09;99.27;100764.91;5054709;28;20174;-69
2021/01/27 02:59:02;;;;;;;18.20;8.20;;;;;;;1.14;98.62;100770.78;5054885;28;20068;-69
2021/01/27 03:01:57;;;;;;;15.93;8.75;;;;;;;1.21;97.61;100772.19;4994019;28;20064;-69
2021/01/27 03:04:49;;;;;;;15.57;8.40;;;;;;;1.21;97.91;100756.44;4980316;28;20104;-69
2021/01/27 03:07:34;;;;;;;18.83;8.27;;;;;;;1.20;97.90;100753.88;5053837;28;20516;-69
2021/01/27 03:10:25;;;;;;;15.20;7.53;;;;;;;1.30;97.02;100756.00;5053006;28;20098;-69
2021/01/27 03:13:09;;;;;;;9.50;6.50;;;;;;;1.33;96.86;100754.97;5054413;28;20532;-70
2021/01/27 03:15:56;;;;;;;14.23;8.10;;;;;;;1.35;96.72;100747.91;5040314;28;20083;-70
2021/01/27 03:18:44;;;;;;;15.73;8.02;;;;;;;1.36;96.36;100747.78;5040169;28;20047;-70
2021/01/27 03:21:34;;;;;;;14.70;8.32;;;;;;;1.38;96.45;100747.72;5053980;28;20051;-69
2021/01/27 03:24:20;;;;;;;16.55;8.75;;;;;;;1.32;96.56;100745.41;5054186;28;20052;-69
2021/01/27 03:27:09;;;;;;;13.13;7.50;;;;;;;1.30;97.05;100745.50;5054065;28;20075;-68
2021/01/27 03:29:57;;;;;;;22.67;9.00;;;;;;;1.34;96.93;100736.53;5054647;28;20107;-69
2021/01/27 03:32:59;;;;;;;13.95;8.05;;;;;;;1.36;96.54;100724.16;5039691;28;20080;-67
2021/01/27 03:36:01;;;;;;;11.68;6.85;;;;;;;1.37;96.56;100717.97;5053967;28;20044;-69
2021/01/27 03:38:50;;;;;;;13.93;7.70;;;;;;;1.41;96.45;100727.41;5053558;28;20124;-69
2021/01/27 03:41:39;;;;;;;12.25;8.13;;;;;;;1.44;96.05;100722.00;5053886;28;20063;-70
2021/01/27 03:44:27;;;;;;;14.18;7.72;;;;;;;1.43;96.18;100708.94;5053823;28;20417;-67
2021/01/27 03:47:26;;;;;;;13.65;8.00;;;;;;;1.42;96.21;100707.25;5053639;28;20492;-70
2021/01/27 03:50:14;;;;;;;13.07;8.30;;;;;;;1.49;96.41;100716.53;5053455;28;20184;-67
2021/01/27 03:53:02;;;;;;;16.70;8.45;;;;;;;1.47;96.93;100713.13;5053618;28;20052;-70
2021/01/27 03:55:54;;;;;;;14.27;8.52;;;;;;;1.49;96.73;100709.50;5053351;28;20068;-69
2021/01/27 03:58:43;;;;;;;17.10;9.02;;;;;;;1.52;96.91;100706.72;5053513;28;20036;-70
2021/01/27 04:01:27;;;;;;;18.85;8.60;;;;;;;1.51;96.69;100694.50;5053211;28;20048;-70
2021/01/27 04:04:11;;;;;;;16.08;8.98;;;;;;;1.58;96.57;100695.03;5053324;28;20052;-70
2021/01/27 04:06:55;;;;;;;16.55;9.05;;;;;;;1.53;96.46;100687.41;5052994;28;20130;-69
2021/01/27 04:09:39;;;;;;;16.65;9.07;;;;;;;1.52;96.92;100683.06;5054252;28;20471;-69
2021/01/27 04:12:24;;;;;;;14.40;8.88;;;;;;;1.54;97.03;100677.75;5053286;28;20523;-69
2021/01/27 04:15:09;;;;;;;13.52;8.50;;;;;;;1.53;96.81;100674.25;5039113;28;20079;-69
2021/01/27 04:17:54;;;;;;;13.05;8.48;;;;;;;1.51;97.71;100670.88;5054144;28;20504;-69
2021/01/27 04:20:37;;;;;;;13.43;8.88;;;;;;;1.48;98.49;100660.53;5053618;28;20087;-70
2021/01/27 04:23:22;;;;;;;16.10;8.82;;;;;;;1.51;98.89;100660.34;5053312;28;20105;-69
2021/01/27 04:26:06;;;;;;;14.25;9.00;;;;;;;1.50;99.00;100658.66;5053010;28;20551;-69
2021/01/27 04:28:50;;;;;;;17.30;9.55;;;;;;;1.50;97.80;100669.16;5039751;28;20086;-69
2021/01/27 04:31:34;;;;;;;11.68;8.40;;;;;;;1.45;97.95;100665.91;5052922;28;20455;-69
2021/01/27 04:34:18;;;;;;;15.48;9.27;;;;;;;1.44;97.66;100660.75;5052903;28;20055;-70
2021/01/27 04:37:03;;;;;;;17.30;8.90;;;;;;;1.45;98.60;100660.66;5053789;28;20460;-70
2021/01/27 04:39:46;;;;;;;19.13;9.40;;;;;;;1.47;98.45;100653.53;5052445;28;20103;-70
2021/01/27 04:42:30;;;;;;;13.93;7.97;;;;;;;1.46;98.10;100637.88;5052735;28;20504;-69
2021/01/27 04:45:15;;;;;;;17.20;9.48;;;;;;;1.42;97.69;100650.31;5053443;28;20052;-69
2021/01/27 04:48:13;;;;;;;16.00;8.32;;;;;;;1.43;97.07;100646.75;5053304;28;20051;-69
2021/01/27 04:51:02;;;;;;;18.83;8.20;;;;;;;1.45;95.80;100642.25;5052638;28;20405;-70
2021/01/27 04:53:55;;;;;;;16.05;8.52;;;;;;;1.43;96.17;100638.00;5052616;28;20128;-69
2021/01/27 04:57:17;;;;;;;15.27;8.23;;;;;;;1.45;95.53;100639.63;5038281;28;20111;-70
2021/01/27 05:00:28;;;;;;;13.93;7.75;;;;;;;1.49;95.63;100635.94;5052256;28;20540;-69
2021/01/27 05:03:15;;;;;;;15.20;7.95;;;;;;;1.46;95.25;100628.19;5052260;28;20047;-69
2021/01/27 05:06:02;;;;;;;15.88;8.70;;;;;;;1.52;94.78;100627.91;5053406;28;20107;-69
2021/01/27 05:09:02;;;;;;;13.60;8.68;;;;;;;1.51;95.33;100634.09;5052249;28;20048;-70
2021/01/27 05:11:47;;;;;;;15.38;8.85;;;;;;;1.45;96.16;100644.88;5038337;28;20130;-69
2021/01/27 05:14:31;;;;;;;12.27;8.88;;;;;;;1.46;95.23;100636.06;5052065;28;20052;-69
2021/01/27 05:17:17;;;;;;;;;;;;;;;1.54;94.92;100623.41;5038486;28;20469;-69
2021/01/27 05:20:03;;;;;;;15.95;8.73;;;;;;;1.58;94.22;100609.16;5052877;28;19966;-69
2021/01/27 05:22:47;;;;;;;14.93;6.70;;;;;;;1.61;93.36;100606.41;5053307;28;20048;-68
2021/01/27 05:25:41;;;;;;;;;;;;;;;1.59;93.43;100604.78;5052752;28;20071;-69
2021/01/27 05:28:29;;;;;;;14.38;8.43;;;;;;;1.61;92.76;100605.53;5052731;28;20285;-69
2021/01/27 05:31:13;;;;;;;15.13;7.88;;;;;;;1.67;92.19;100618.38;5051928;28;20040;-69
2021/01/27 05:33:57;;;;;;;13.60;8.02;;;;;;;1.68;92.11;100610.38;5056108;28;20420;-69
2021/01/27 05:36:48;;;;;;;15.15;8.27;;;;;;;1.70;92.03;100610.31;5056068;28;20114;-69
2021/01/27 05:39:34;;;;;;;15.90;7.57;;;;;;;1.75;91.26;100609.16;5056962;28;20094;-69
2021/01/27 05:42:27;;;;;;;13.20;7.80;;;;;;;1.72;91.36;100583.03;5042093;28;20052;-69
2021/01/27 05:45:36;;;;;;;14.55;7.72;;;;;;;1.72;91.38;100580.41;5041965;28;20456;-69
2021/01/27 05:48:30;;;;;;;14.80;7.53;;;;;;;1.71;91.36;100578.72;5055902;28;20048;-70
2021/01/27 05:51:32;;;;;;;12.45;7.75;;;;;;;1.71;91.56;100577.84;5056924;28;20115;-69
2021/01/27 05:54:26;;;;;;;15.02;8.82;;;;;;;1.70;91.85;100577.00;5055872;28;20091;-70
2021/01/27 05:57:25;;;;;;;16.58;8.32;;;;;;;1.72;91.39;100574.28;5055469;28;20124;-70
2021/01/27 06:00:18;;;;;;;17.27;7.95;;;;;;;1.69;92.22;100584.97;5055754;28;20094;-69
2021/01/27 06:03:03;;;;;;;13.90;8.82;;;;;;;1.61;92.71;100602.91;5056649;28;20044;-69
2021/01/27 06:05:47;;;;;;;15.57;7.65;;;;;;;1.62;92.38;100578.31;5055559;28;20577;-69
2021/01/27 06:08:31;;;;;;;18.20;9.05;;;;;;;1.66;92.38;100585.97;5055487;28;20056;-70
2021/01/27 06:11:15;;;;;;;16.60;7.82;;;;;;;1.68;91.28;100581.47;5055585;28;20132;-70
2021/01/27 06:14:21;;;;;;;13.50;7.82;;;;;;;1.63;91.46;100566.88;5056256;28;20048;-69
2021/01/27 06:17:24;;;;;;;14.90;8.00;;;;;;;1.72;90.79;100559.38;5055533;28;20406;-69
2021/01/27 06:20:22;;;;;;;11.40;7.47;;;;;;;1.68;90.13;100555.19;5055095;28;20102;-69
2021/01/27 06:23:47;;;;;;;13.38;7.78;;;;;;;1.64;90.78;100558.94;5055343;28;20548;-69
2021/01/27 06:26:45;;;;;;;11.90;6.78;;;;;;;1.73;89.11;100553.19;5054580;28;20048;-69
2021/01/27 06:29:52;;;;;;;12.00;6.47;;;;;;;1.79;88.14;100541.50;5055841;28;20051;-69
2021/01/27 06:33:07;;;;;;;12.43;6.20;;;;;;;1.80;86.99;100536.16;5054886;28;20039;-69
2021/01/27 06:36:03;;;;;;;10.18;6.95;;;;;;;1.84;86.56;100527.16;5055843;28;20441;-69
2021/01/27 06:39:09;;;;;;;13.55;7.00;;;;;;;1.89;86.03;100530.41;5055747;28;20409;-69
2021/01/27 06:42:06;;;;;;;9.77;6.40;;;;;;;1.92;85.64;100526.75;5055783;28;20098;-69
2021/01/27 06:45:18;;;;;;;10.27;5.45;;;;;;;1.92;84.94;100524.97;5055554;28;20126;-69
2021/01/27 06:48:08;;;;;;;12.07;6.72;;;;;;;1.91;85.14;100527.69;5055856;28;20102;-69
2021/01/27 06:51:16;;;;;;;14.43;7.03;;;;;;;1.93;84.90;100525.81;5055617;28;20079;-69
2021/01/27 06:54:22;;;;;;;13.25;6.55;;;;;;;1.94;85.45;100519.63;5054436;28;20413;-69
2021/01/27 06:57:27;;;;;;;11.25;6.65;;;;;;;1.96;85.35;100526.50;5055510;28;20060;-69
2021/01/27 07:00:27;;;;;;;12.35;5.78;;;;;;;2.02;84.29;100533.19;5054496;28;20056;-69
2021/01/27 07:03:17;;;;;;;11.20;5.95;;;;;;;1.98;84.77;100535.13;5055473;28;20480;-69
2021/01/27 07:06:40;;;;;;;10.52;6.15;;;;;;;1.99;85.30;100542.09;5055594;28;20186;-70
2021/01/27 07:09:27;;;;;;;9.48;5.75;;;;;;;1.95;84.90;100537.94;5052216;28;20055;-69
2021/01/27 07:12:30;;;;;;;12.68;6.18;;;;;;;1.96;85.16;100539.63;5055214;28;20095;-68
2021/01/27 07:15:39;;;;;;;12.98;6.55;;;;;;;1.94;86.05;100541.50;5054173;28;20040;-69
2021/01/27 07:19:01;;;;;;;13.40;6.32;;;;;;;1.96;85.61;100546.69;5055297;28;20094;-69
2021/01/27 07:21:54;;;;;;;11.68;5.80;;;;;;;1.92;86.46;100547.78;5054604;28;20051;-68
2021/01/27 07:25:03;;;;;;;13.75;6.18;;;;;;;1.85;87.56;100552.53;5055293;28;20056;-69
2021/01/27 07:28:08;;;;;;;14.27;6.72;;;;;;;1.83;88.21;100557.03;5055020;28;20087;-69
2021/01/27 07:31:00;;;;;;;10.93;6.70;;;;;;;1.80;89.09;100567.72;5054189;28;20047;-70
2021/01/27 07:34:04;;;;;;;9.43;6.13;;;;;;;1.77;90.13;100573.09;5054043;28;20556;-69
2021/01/27 07:36:59;;;;;;;9.65;6.85;;;;;;;1.80;90.93;100572.09;5053829;28;20194;-69
2021/01/27 07:39:52;;;;;;;13.02;6.80;;;;;;;1.77;91.44;100578.38;5053549;28;20513;-69
2021/01/27 07:42:55;;;;;;;10.93;6.63;;;;;;;1.76;92.51;100587.19;5053955;28;20047;-69
2021/01/27 07:45:44;;;;;;;13.63;6.55;;;;;;;1.71;93.19;100578.72;5053779;28;20060;-69
2021/01/27 07:48:31;;;;;;;10.75;6.88;;;;;;;1.69;94.10;100580.56;5053305;28;20076;-70
2021/01/27 07:51:19;;;;;;;14.60;6.20;;;;;;;1.69;94.79;100583.22;5054728;28;20145;-69
2021/01/27 07:54:15;;;;;;;16.75;6.97;;;;;;;1.65;95.63;100573.75;5053397;28;20048;-69
2021/01/27 07:57:31;;;;;;;10.55;6.70;;;;;;;1.66;97.00;100575.47;5052728;28;20090;-69
2021/01/27 08:00:21;;;;;;;13.23;6.97;;;;;;;1.51;97.94;100567.53;5028144;28;20563;-69
2021/01/27 08:03:31;;;;;;;12.70;7.63;;;;;;;1.51;98.84;100576.28;5053393;28;20047;-69
2021/01/27 08:06:18;;;;;;;11.00;7.18;;;;;;;1.47;100.00;100574.72;5054238;28;20148;-70
2021/01/27 08:09:03;;;;;;;9.85;5.43;;;;;;;1.38;100.00;100575.22;5053208;28;20175;-69
2021/01/27 08:11:47;;;;;;;21.25;8.43;;;;;;;1.27;100.00;100577.53;5054161;28;20097;-69
2021/01/27 08:14:50;;;;;;;;;;;;;;;1.17;100.00;100576.31;5039611;28;20418;-70
2021/01/27 08:17:43;;;;;;;22.30;10.38;;;;;;;1.09;100.00;100581.13;5054283;28;19920;-70
2021/01/27 08:20:28;;;;;;;20.35;9.95;;;;;;;1.09;100.00;100581.13;5053845;28;20583;-69
2021/01/27 08:23:21;;;;;;;15.52;8.32;;;;;;;1.00;100.00;100568.47;5053035;28;20075;-69
2021/01/27 08:26:06;;;;;;;19.23;8.88;;;;;;;1.03;100.00;100575.34;5053093;28;20131;-70
2021/01/27 08:29:10;;;;;;;19.88;9.50;;;;;;;1.01;100.00;100575.41;5052432;28;20128;-68
2021/01/27 08:32:28;;;;;;;16.40;8.52;;;;;;;0.97;100.00;100571.25;5052723;28;20039;-68
2021/01/27 08:35:38;;;;;;;15.32;7.95;;;;;;;0.89;100.00;100573.41;5038506;28;20044;-68
2021/01/27 08:38:28;;;;;;;17.45;9.88;;;;;;;0.83;100.00;100565.00;5052022;28;20409;-69
2021/01/27 08:41:45;;;;;;;17.23;9.50;;;;;;;0.79;100.00;100559.03;5052826;28;20051;-69
2021/01/27 08:44:33;;;;;;;21.80;7.55;;;;;;;0.73;100.00;100543.59;5052657;28;20615;-69
2021/01/27 08:47:20;;;;;;;15.43;9.85;;;;;;;0.75;100.00;100530.41;5038685;28;20044;-69
2021/01/27 08:50:10;;;;;;;15.50;10.05;;;;;;;0.78;100.00;100536.34;5052358;28;20070;-68
2021/01/27 08:53:24;;;;;;;15.32;9.10;;;;;;;0.79;100.00;100530.16;5052664;28;20095;-68
2021/01/27 08:56:08;;;;;;;20.33;9.93;;;;;;;0.82;100.00;100522.13;5029521;28;20099;-68
2021/01/27 08:59:27;;;;;;;15.05;9.52;;;;;;;0.85;100.00;100510.66;5053634;28;20183;-67
2021/01/27 09:03:02;;;;;;;16.50;9.00;;;;;;;0.82;100.00;100522.13;5014580;28;20044;-67
2021/01/27 09:05:46;;;;;;;11.88;7.22;;;;;;;0.87;100.00;100520.16;5053749;28;20106;-67
2021/01/27 09:08:32;;;;;;;10.20;6.85;;;;;;;0.77;100.00;100513.66;5052403;28;20541;-66
2021/01/27 09:11:17;;;;;;;14.95;7.60;;;;;;;0.79;100.00;100517.06;5052471;28;20474;-66
2021/01/27 09:14:10;;;;;;;10.43;7.15;;;;;;;0.81;100.00;100514.31;5052496;28;20047;-66
2021/01/27 09:16:55;;;;;;;12.02;6.10;;;;;;;0.84;100.00;100509.78;5052372;28;20456;-66
2021/01/27 09:19:40;;;;;;;9.30;5.57;;;;;;;0.87;100.00;100503.53;5038024;28;20091;-66
2021/01/27 09:22:24;;;;;;;10.23;6.95;;;;;;;0.90;100.00;100504.22;5053374;28;20047;-66
2021/01/27 09:25:10;;;;;;;12.07;7.32;;;;;;;0.88;100.00;100506.09;5052271;28;20071;-66
2021/01/27 09:28:03;;;;;;;11.27;6.63;;;;;;;0.87;100.00;100509.66;5053154;28;20410;-66
2021/01/27 09:30:47;;;;;;;11.05;6.18;;;;;;;0.88;100.00;100516.59;5052482;28;20223;-66
2021/01/27 09:33:34;;;;;;;13.40;8.18;;;;;;;0.86;100.00;100499.22;5052912;28;20047;-66
2021/01/27 09:36:24;;;;;;;12.48;6.90;;;;;;;0.89;100.00;100512.16;5052155;28;20091;-66
2021/01/27 09:39:09;;;;;;;10.52;6.47;;;;;;;0.85;100.00;100516.72;5038051;28;20110;-67
2021/01/27 09:41:54;;;;;;;12.82;7.65;;;;;;;0.87;100.00;100507.03;5051827;28;20098;-67
2021/01/27 09:44:39;;;;;;;11.07;6.60;;;;;;;0.91;100.00;100505.94;5053028;28;20047;-67
2021/01/27 09:47:23;;;;;;;11.27;5.75;;;;;;;0.92;100.00;100491.88;5052069;28;20052;-68
2021/01/27 09:50:08;;;;;;;15.55;7.97;;;;;;;0.95;100.00;100491.69;5052748;28;20052;-68
2021/01/27 09:53:00;;;;;;;16.85;9.07;;;;;;;1.08;100.00;100484.91;5051718;28;20139;-68
2021/01/27 09:55:45;;;;;;;7.72;5.60;;;;;;;1.05;100.00;100487.69;5052002;28;20068;-68
2021/01/27 09:58:29;;;;;;;;;;;;;;;0.97;100.00;100489.88;5053303;28;20086;-68
2021/01/27 10:01:25;;;;;;;14.07;7.85;;;;;;;1.04;100.00;100495.66;5051940;28;19919;-68
2021/01/27 10:04:12;;;;;;;13.43;7.68;;;;;;;1.05;100.00;100492.94;5051623;28;20052;-68
2021/01/27 10:07:26;;;;;;;12.77;7.28;;;;;;;1.14;100.00;100487.19;5051800;28;20090;-68
2021/01/27 10:10:16;;;;;;;11.30;6.45;;;;;;;1.08;100.00;100479.66;5046218;28;20464;-68
2021/01/27 10:13:01;;;;;;;8.02;5.40;;;;;;;1.05;100.00;100482.44;5051636;28;20095;-68
2021/01/27 10:15:45;;;;;;;11.27;6.60;;;;;;;1.11;100.00;100476.88;5051770;28;20102;-68
2021/01/27 10:18:30;;;;;;;7.18;4.70;;;;;;;1.08;100.00;100490.16;5053531;28;20405;-69
2021/01/27 10:21:15;;;;;;;9.60;5.15;;;;;;;1.08;100.00;100495.41;5055144;28;20127;-69
2021/01/27 10:23:59;;;;;;;8.80;6.45;;;;;;;1.15;100.00;100488.06;5056314;28;20053;-68
2021/01/27 10:26:43;;;;;;;7.70;5.40;;;;;;;1.18;100.00;100488.75;5055340;28;20055;-68
2021/01/27 10:29:36;;;;;;;9.60;6.13;;;;;;;1.23;100.00;100497.22;5054868;28;20071;-67
2021/01/27 10:32:33;;;;;;;7.57;5.40;;;;;;;1.29;100.00;100494.28;5055002;28;20516;-67
2021/01/27 10:35:23;;;;;;;6.97;4.53;;;;;;;1.24;100.00;100471.81;5056220;28;20048;-67
2021/01/27 10:38:11;;;;;;;7.38;4.72;;;;;;;1.26;100.00;100476.03;5056199;28;20405;-67
2021/01/27 10:41:21;;;;;;;6.28;4.45;;;;;;;1.31;100.00;100474.03;5055793;28;20079;-67
2021/01/27 10:44:27;;;;;;;5.57;3.70;;;;;;;1.37;100.00;100472.88;5054984;28;20047;-68
2021/01/27 10:47:18;;;;;;;8.32;5.05;;;;;;;1.40;100.00;100476.19;5054868;28;20047;-68
2021/01/27 10:50:03;;;;;;;6.03;4.22;;;;;;;1.49;100.00;100482.72;5054815;28;20500;-68
2021/01/27 10:52:49;;;;;;;7.75;4.15;;;;;;;1.50;100.00;100480.00;5054515;28;20052;-69
2021/01/27 10:55:35;;;;;;;6.22;4.03;;;;;;;1.41;100.00;100474.38;5055007;28;20551;-68
2021/01/27 10:58:20;;;;;;;6.60;3.80;;;;;;;1.41;100.00;100485.75;5054383;28;20047;-68
2021/01/27 11:01:04;;;;;;;14.07;3.92;;;;;;;1.41;100.00;100491.00;5054505;28;20486;-68
2021/01/27 11:03:48;;;;;;;7.22;3.85;;;;;;;1.50;100.00;100480.00;5040565;28;20047;-68
2021/01/27 11:06:32;;;;;;;6.45;3.75;;;;;;;1.53;100.00;100464.06;5055318;28;20145;-69
2021/01/27 11:09:16;;;;;;;3.53;2.90;;;;;;;1.48;100.00;100457.38;5055174;28;20036;-68
2021/01/27 11:12:00;;;;;;;6.00;3.90;;;;;;;1.59;100.00;100465.53;5040385;28;20048;-68
2021/01/27 11:14:44;;;;;;;4.90;3.60;;;;;;;1.59;100.00;100458.50;5054373;28;20047;-68
2021/01/27 11:17:29;;;;;;;6.38;3.05;;;;;;;1.61;100.00;100454.00;5054135;28;20067;-67
2021/01/27 11:20:18;;;;;;;5.35;3.58;;;;;;;1.70;100.00;100458.75;5055183;28;20056;-67
2021/01/27 11:23:02;;;;;;;4.10;3.40;;;;;;;1.75;100.00;100459.34;5054367;28;20063;-68
2021/01/27 11:25:47;;;;;;;4.75;3.13;;;;;;;1.80;100.00;100446.81;5054265;28;20113;-68
2021/01/27 11:28:31;;;;;;;8.40;3.53;;;;;;;1.84;100.00;100464.09;5053631;28;20101;-67
2021/01/27 11:31:16;;;;;;;4.10;3.13;;;;;;;1.78;100.00;100467.03;5039195;28;20055;-68
2021/01/27 11:34:01;;;;;;;6.90;2.80;;;;;;;1.74;100.00;100468.16;5054126;28;20051;-67
2021/01/27 11:36:45;;;;;;;3.88;2.70;;;;;;;1.74;100.00;100465.53;5053800;28;20051;-67
2021/01/27 11:39:29;;;;;;;3.85;2.55;;;;;;;1.66;100.00;100444.06;5053732;28;20048;-67
2021/01/27 11:42:13;;;;;;;4.43;2.85;;;;;;;1.63;100.00;100456.53;5054660;28;20052;-67
2021/01/27 11:44:57;;;;;;;3.35;2.25;;;;;;;1.69;100.00;100459.69;5054627;28;20059;-68
2021/01/27 11:47:41;;;;;;;4.53;2.83;;;;;;;1.67;100.00;100439.69;5054844;28;20559;-68
2021/01/27 11:50:28;;;;;;;6.05;3.35;;;;;;;1.74;100.00;100431.38;5053489;28;20080;-68
2021/01/27 11:53:11;;;;;;;4.80;3.33;;;;;;;1.84;100.00;100416.78;5053991;28;20058;-68
2021/01/27 11:55:56;;;;;;;3.55;2.47;;;;;;;1.79;100.00;100424.09;5053358;28;20429;-69
2021/01/27 11:58:40;;;;;;;4.10;2.97;;;;;;;1.79;100.00;100417.97;5053411;28;20063;-69
2021/01/27 12:01:28;;;;;;;8.05;3.63;;;;;;;1.77;100.00;100431.19;5053540;28;20094;-68
2021/01/27 12:04:13;;;;;;;5.70;3.20;;;;;;;1.81;100.00;100427.47;5053187;28;20509;-69
2021/01/27 12:06:57;;;;;;;6.45;3.10;;;;;;;1.89;100.00;100424.41;5053252;28;20048;-69
2021/01/27 12:09:42;;;;;;;5.38;3.15;;;;;;;1.90;100.00;100411.19;5054049;28;20128;-70
2021/01/27 12:12:26;;;;;;;4.88;2.63;;;;;;;1.86;100.00;100404.38;5053340;28;20047;-69
2021/01/27 12:15:11;;;;;;;4.78;2.80;;;;;;;1.89;100.00;100403.38;5054257;28;20504;-70
2021/01/27 12:17:55;;;;;;;3.55;2.65;;;;;;;1.83;100.00;100394.06;5053083;28;20471;-70
2021/01/27 12:20:40;;;;;;;4.22;3.10;;;;;;;1.84;100.00;100384.38;5053963;28;20118;-70
2021/01/27 12:23:23;;;;;;;3.95;3.05;;;;;;;1.90;100.00;100379.63;5054098;28;20044;-70
2021/01/27 12:26:08;;;;;;;5.20;3.20;;;;;;;2.00;100.00;100372.91;5053110;28;20052;-70
2021/01/27 12:28:52;;;;;;;3.42;2.38;;;;;;;1.92;100.00;100372.50;5052572;28;20118;-70
2021/01/27 12:31:36;;;;;;;;;;;;;;;1.87;100.00;100358.75;5053345;28;20412;-70
2021/01/27 12:34:20;;;;;;;6.93;3.50;;;;;;;1.90;100.00;100361.25;5053007;28;19970;-70
2021/01/27 12:37:04;;;;;;;6.75;3.17;;;;;;;1.96;100.00;100358.25;5052826;28;20124;-70
2021/01/27 12:39:48;;;;;;;6.35;3.00;;;;;;;2.02;100.00;100363.16;5053812;28;20573;-70
2021/01/27 12:42:33;;;;;;;3.88;2.65;;;;;;;2.01;100.00;100366.72;5052571;28;20048;-69
2021/01/27 12:45:20;;;;;;;3.75;3.10;;;;;;;2.01;100.00;100350.09;5053648;28;20191;-70
2021/01/27 12:48:04;;;;;;;4.03;1.95;;;;;;;1.95;100.00;100359.19;5052460;28;20516;-69
2021/01/27 12:50:48;;;;;;;3.55;2.22;;;;;;;1.93;100.00;100352.31;5053728;28;20059;-69
2021/01/27 12:53:32;;;;;;;4.50;3.25;;;;;;;1.99;100.00;100347.53;5053608;28;20051;-70
2021/01/27 12:56:17;;;;;;;5.72;2.13;;;;;;;1.92;100.00;100347.97;5038190;28;20521;-69
2021/01/27 12:59:01;;;;;;;5.28;3.03;;;;;;;1.97;100.00;100332.81;5052511;28;20048;-70
2021/01/27 13:01:45;;;;;;;4.00;2.22;;;;;;;1.91;100.00;100344.53;5053283;28;20421;-69
2021/01/27 13:04:29;;;;;;;4.22;2.75;;;;;;;1.93;100.00;100342.66;5053348;28;20532;-70
2021/01/27 13:07:13;;;;;;;;;;;;;;;1.89;100.00;100356.91;5053495;28;20055;-69
2021/01/27 13:09:57;;;;;;;4.50;2.93;;;;;;;1.91;100.00;100349.78;5052147;28;20004;-69
2021/01/27 13:12:54;;;;;;;;;;;;;;;;;;;;;
2021/01/27 13:15:55;;;;;;;;;;;;;;;;;;;;;
2021/01/27 13:18:56;;;;;;;4.72;2.20;;;;;;;1.95;100.00;100347.84;5052251;28;20035;-68